createdAt,value
2023-02-13T00:03:46.405Z,13.13
2023-02-13T00:06:49.737Z,14.25
2023-02-13T00:09:52.537Z,18.20
2023-02-13T00:12:55.359Z,17.98
2023-02-13T00:16:00.925Z,18.85
2023-02-13T00:19:03.824Z,21.08
2023-02-13T00:22:06.742Z,21.55
2023-02-13T00:25:09.840Z,22.37
2023-02-13T00:28:12.744Z,23.25
2023-02-13T00:31:19.179Z,24.42
2023-02-13T00:34:23.330Z,25.80
2023-02-13T00:37:26.502Z,26.02
2023-02-13T00:40:29.333Z,26.17
2023-02-13T00:43:32.611Z,28.42
2023-02-13T00:46:35.583Z,27.40
2023-02-13T00:49:38.382Z,23.98
2023-02-13T00:52:41.196Z,23.52
2023-02-13T00:55:44.902Z,24.75
2023-02-13T00:58:47.854Z,21.70
2023-02-13T01:01:51.137Z,22.90
2023-02-13T01:04:54.043Z,22.25
2023-02-13T01:07:57.070Z,21.08
2023-02-13T01:11:00.355Z,27.02
2023-02-13T01:17:06.225Z,27.10
2023-02-13T01:20:11.311Z,28.35
2023-02-13T01:23:14.177Z,31.95
2023-02-13T01:26:19.813Z,36.13
2023-02-13T01:29:22.712Z,36.70
2023-02-13T01:32:25.748Z,34.72
2023-02-13T01:35:28.567Z,32.80
2023-02-13T01:38:31.392Z,42.25
2023-02-13T01:41:35.701Z,38.97
2023-02-13T01:44:52.176Z,35.13
2023-02-13T01:48:11.200Z,36.00
2023-02-13T01:51:20.364Z,40.47
2023-02-13T01:54:31.263Z,39.00
2023-02-13T01:57:36.980Z,33.92
2023-02-13T02:00:40.404Z,41.20
2023-02-13T02:03:53.137Z,40.58
2023-02-13T02:07:00.505Z,42.25
2023-02-13T02:10:10.256Z,42.03
2023-02-13T02:13:19.343Z,39.88
2023-02-13T02:16:22.850Z,41.20
2023-02-13T02:19:40.761Z,43.47
2023-02-13T02:22:46.798Z,38.88
2023-02-13T02:26:04.648Z,38.67
2023-02-13T02:29:29.852Z,38.83
2023-02-13T02:32:58.348Z,43.78
2023-02-13T02:36:33.188Z,43.25
2023-02-13T02:39:57.786Z,42.67
2023-02-13T02:43:16.007Z,43.90
2023-02-13T02:46:37.559Z,48.13
2023-02-13T02:49:59.926Z,47.75
2023-02-13T02:53:24.455Z,45.60
2023-02-13T02:56:34.772Z,47.08
2023-02-13T02:59:59.257Z,47.65
2023-02-13T03:03:23.911Z,46.70
2023-02-13T03:06:35.932Z,47.50
2023-02-13T03:10:05.565Z,49.17
2023-02-13T03:13:23.905Z,53.15
2023-02-13T03:16:45.540Z,52.72
2023-02-13T03:20:38.734Z,56.15
2023-02-13T03:24:04.928Z,50.83
2023-02-13T03:27:44.861Z,54.03
2023-02-13T03:30:50.304Z,50.28
2023-02-13T03:34:25.433Z,49.63
2023-02-13T03:37:52.763Z,51.55
2023-02-13T03:41:20.683Z,45.30
2023-02-13T03:45:09.490Z,49.05
2023-02-13T03:48:35.385Z,50.17
2023-02-13T03:51:52.342Z,50.12
2023-02-13T03:55:22.979Z,51.47
2023-02-13T03:58:53.998Z,53.63
2023-02-13T04:02:02.862Z,46.20
2023-02-13T04:05:15.568Z,46.60
2023-02-13T04:08:18.297Z,49.80
2023-02-13T04:11:30.633Z,44.92
2023-02-13T04:15:12.124Z,48.50
2023-02-13T04:18:20.896Z,43.03
2023-02-13T04:21:24.274Z,43.72
2023-02-13T04:24:27.840Z,42.95
2023-02-13T04:27:30.464Z,45.10
2023-02-13T04:30:33.972Z,41.17
2023-02-13T04:33:36.558Z,42.72
2023-02-13T04:36:39.834Z,38.65
2023-02-13T04:39:42.449Z,39.03
2023-02-13T04:42:48.542Z,41.65
2023-02-13T04:45:51.704Z,39.80
2023-02-13T04:48:54.891Z,39.53
2023-02-13T04:51:57.524Z,41.95
2023-02-13T04:55:00.684Z,37.40
2023-02-13T04:58:03.183Z,42.47
2023-02-13T05:01:15.252Z,35.90
2023-02-13T05:04:17.900Z,36.25
2023-02-13T05:07:21.056Z,36.88
2023-02-13T05:10:23.607Z,34.63
2023-02-13T05:13:26.849Z,37.60
2023-02-13T05:16:29.486Z,38.65
2023-02-13T05:19:32.585Z,43.67
2023-02-13T05:22:53.713Z,39.60
2023-02-13T05:25:56.791Z,41.10
2023-02-13T05:29:17.917Z,40.17
2023-02-13T05:32:21.007Z,37.20
2023-02-13T05:35:24.894Z,40.65
2023-02-13T05:38:28.014Z,38.65
2023-02-13T05:41:30.676Z,35.10
2023-02-13T05:44:33.861Z,36.10
2023-02-13T05:47:36.965Z,35.83
2023-02-13T05:50:43.553Z,40.38
2023-02-13T05:53:46.136Z,31.95
2023-02-13T05:56:49.284Z,38.75
2023-02-13T05:59:51.789Z,37.57
2023-02-13T06:02:54.885Z,38.88
2023-02-13T06:05:58.302Z,41.15
2023-02-13T06:09:01.082Z,35.58
2023-02-13T06:12:04.161Z,37.88
2023-02-13T06:15:07.664Z,38.50
2023-02-13T06:18:11.271Z,41.33
2023-02-13T06:21:14.198Z,41.42
2023-02-13T06:24:17.144Z,41.60
2023-02-13T06:27:20.030Z,39.40
2023-02-13T06:30:23.120Z,39.58
2023-02-13T06:33:26.102Z,39.40
2023-02-13T06:36:29.080Z,38.15
2023-02-13T06:39:31.868Z,36.22
2023-02-13T06:42:34.750Z,36.92
2023-02-13T06:45:38.277Z,35.25
2023-02-13T06:51:44.098Z,32.05
2023-02-13T06:54:48.210Z,34.45
2023-02-13T06:57:51.149Z,38.17
2023-02-13T07:00:54.129Z,39.03
2023-02-13T07:03:57.657Z,33.97
2023-02-13T07:07:00.434Z,36.75
2023-02-13T07:10:04.859Z,39.55
2023-02-13T07:13:08.466Z,39.42
2023-02-13T07:16:11.556Z,39.88
2023-02-13T07:22:17.476Z,42.70
2023-02-13T07:25:20.313Z,42.97
2023-02-13T07:28:23.131Z,43.78
2023-02-13T07:31:26.093Z,47.67
2023-02-13T07:34:29.047Z,44.17
2023-02-13T07:37:32.018Z,42.95
2023-02-13T07:40:34.822Z,49.42
2023-02-13T07:43:37.645Z,53.53
2023-02-13T07:46:40.514Z,48.60
2023-02-13T07:49:44.653Z,54.55
2023-02-13T07:52:58.262Z,48.87
2023-02-13T07:56:09.133Z,43.53
2023-02-13T07:59:12.044Z,45.63
2023-02-13T08:02:16.340Z,46.37
2023-02-13T08:05:19.604Z,42.53
2023-02-13T08:08:22.327Z,38.72
2023-02-13T08:11:51.608Z,35.58
2023-02-13T08:14:54.282Z,33.63
2023-02-13T08:17:57.692Z,36.72
2023-02-13T08:21:02.568Z,60.45
2023-02-13T08:24:06.923Z,31.50
2023-02-13T08:27:14.661Z,31.98
2023-02-13T08:30:18.236Z,28.92
2023-02-13T08:36:24.842Z,29.58
2023-02-13T08:39:27.500Z,26.15
2023-02-13T08:42:31.424Z,24.15
2023-02-13T08:45:36.197Z,20.85
2023-02-13T08:48:39.369Z,26.37
2023-02-13T08:51:42.050Z,20.62
2023-02-13T08:54:45.291Z,22.40
2023-02-13T08:57:48.051Z,21.87
2023-02-13T09:00:51.300Z,20.20
2023-02-13T09:03:54.152Z,17.77
2023-02-13T09:06:57.328Z,18.17
2023-02-13T09:09:59.996Z,17.08
2023-02-13T09:13:05.951Z,17.00
2023-02-13T09:16:15.247Z,17.60
2023-02-13T09:19:22.766Z,14.70
2023-02-13T09:22:25.384Z,15.70
2023-02-13T09:25:28.620Z,16.48
2023-02-13T09:28:32.429Z,17.45
2023-02-13T09:31:35.729Z,17.37
2023-02-13T09:34:38.435Z,17.30
2023-02-13T09:37:41.523Z,16.02
2023-02-13T09:41:03.202Z,16.25
2023-02-13T09:44:35.059Z,16.35
2023-02-13T09:47:41.404Z,18.12
2023-02-13T09:50:44.602Z,17.27
2023-02-13T09:54:11.169Z,17.65
2023-02-13T09:57:25.495Z,18.23
2023-02-13T10:00:39.447Z,20.05
2023-02-13T10:03:48.211Z,18.80
2023-02-13T10:07:16.330Z,19.17
2023-02-13T10:10:38.170Z,20.40
2023-02-13T10:13:49.582Z,21.63
2023-02-13T10:17:05.478Z,20.58
2023-02-13T10:20:36.622Z,20.30
2023-02-13T10:23:50.320Z,21.12
2023-02-13T10:26:55.052Z,22.37
2023-02-13T10:30:07.120Z,22.27
2023-02-13T10:33:21.060Z,21.15
2023-02-13T10:36:33.941Z,19.65
2023-02-13T10:39:36.631Z,20.42
2023-02-13T10:42:46.521Z,22.58
2023-02-13T10:45:52.250Z,23.33
2023-02-13T10:49:29.722Z,21.23
2023-02-13T10:52:50.571Z,21.87
2023-02-13T10:56:30.794Z,21.85
2023-02-13T11:00:01.249Z,21.73
2023-02-13T11:03:04.905Z,21.65
2023-02-13T11:06:14.525Z,23.40
2023-02-13T11:09:18.164Z,20.25
2023-02-13T11:12:32.831Z,22.77
2023-02-13T11:15:37.170Z,21.00
2023-02-13T11:18:50.337Z,23.90
2023-02-13T11:21:57.766Z,23.87
2023-02-13T11:25:17.404Z,27.58
2023-02-13T11:28:21.717Z,24.90
2023-02-13T11:31:31.530Z,23.92
2023-02-13T11:34:35.197Z,26.15
2023-02-13T11:40:44.494Z,28.77
2023-02-13T11:44:01.393Z,23.27
2023-02-13T11:47:04.867Z,26.33
2023-02-13T11:50:25.967Z,26.98
2023-02-13T11:53:36.537Z,27.48
2023-02-13T11:57:28.711Z,26.42
2023-02-13T12:00:42.909Z,29.15
2023-02-13T12:04:17.373Z,27.00
2023-02-13T12:07:30.020Z,24.20
2023-02-13T12:10:37.187Z,26.55
2023-02-13T12:13:40.338Z,26.70
2023-02-13T12:16:50.984Z,27.42
2023-02-13T12:19:55.701Z,27.65
2023-02-13T12:23:12.572Z,26.27
2023-02-13T12:26:22.734Z,28.38
2023-02-13T12:29:25.601Z,26.55
2023-02-13T12:32:46.592Z,25.55
2023-02-13T12:36:07.825Z,26.33
2023-02-13T12:39:37.566Z,26.02
2023-02-13T12:42:48.240Z,31.45
2023-02-13T12:46:06.891Z,26.50
2023-02-13T12:49:31.528Z,26.65
2023-02-13T12:52:46.036Z,27.25
2023-02-13T12:56:07.729Z,28.33
2023-02-13T12:59:51.171Z,27.42
2023-02-13T13:02:59.796Z,30.30
2023-02-13T13:06:40.963Z,30.73
2023-02-13T13:09:58.002Z,23.40
2023-02-13T13:13:27.935Z,30.27
2023-02-13T13:16:45.300Z,20.92
2023-02-13T13:20:23.169Z,12.82
2023-02-13T13:23:52.868Z,10.20
2023-02-13T13:26:58.130Z,8.90
2023-02-13T13:30:13.367Z,8.77
2023-02-13T13:33:21.491Z,10.93
2023-02-13T13:36:41.718Z,9.02
2023-02-13T13:39:57.322Z,10.10
2023-02-13T13:43:13.510Z,7.80
2023-02-13T13:46:32.784Z,9.95
2023-02-13T13:49:50.046Z,10.85
2023-02-13T13:53:12.119Z,10.50
2023-02-13T13:56:15.328Z,9.75
2023-02-13T13:59:33.822Z,10.60
2023-02-13T14:02:59.030Z,13.77
2023-02-13T14:06:09.442Z,12.82
2023-02-13T14:09:38.201Z,10.18
2023-02-13T14:13:02.556Z,9.25
2023-02-13T14:16:10.077Z,10.70
2023-02-13T14:19:43.642Z,17.58
2023-02-13T14:22:46.270Z,15.23
2023-02-13T14:28:52.110Z,12.20
2023-02-13T14:32:04.320Z,18.45
2023-02-13T14:35:12.981Z,14.35
2023-02-13T14:38:25.392Z,18.42
2023-02-13T14:41:46.376Z,18.83
2023-02-13T14:44:52.812Z,17.73
2023-02-13T14:47:58.080Z,18.40
2023-02-13T14:51:06.001Z,18.65
2023-02-13T14:54:29.904Z,20.40
2023-02-13T14:57:37.647Z,20.00
2023-02-13T15:00:52.565Z,17.98
2023-02-13T15:04:05.553Z,19.73
2023-02-13T15:07:17.936Z,30.92
2023-02-13T15:10:44.612Z,19.27
2023-02-13T15:13:47.120Z,20.02
2023-02-13T15:16:55.800Z,17.83
2023-02-13T15:20:29.143Z,18.05
2023-02-13T15:23:35.260Z,14.75
2023-02-13T15:26:38.020Z,17.37
2023-02-13T15:29:54.302Z,16.58
2023-02-13T15:33:02.945Z,16.40
2023-02-13T15:36:06.608Z,17.27
2023-02-13T15:39:18.948Z,14.80
2023-02-13T15:42:22.411Z,16.25
2023-02-13T15:45:27.535Z,15.55
2023-02-13T15:48:32.271Z,15.02
2023-02-13T15:51:35.349Z,15.23
2023-02-13T15:54:49.388Z,14.98
2023-02-13T15:57:55.047Z,16.37
2023-02-13T16:01:04.798Z,13.48
2023-02-13T16:04:12.438Z,17.42
2023-02-13T16:07:15.475Z,14.15
2023-02-13T16:10:27.805Z,15.57
2023-02-13T16:13:30.719Z,14.52
2023-02-13T16:16:43.031Z,19.70
2023-02-13T16:19:55.710Z,17.43
2023-02-13T16:23:13.942Z,14.98
2023-02-13T16:26:16.897Z,12.13
2023-02-13T16:29:26.312Z,12.02
2023-02-13T16:32:34.890Z,11.00
2023-02-13T16:35:40.968Z,12.52
2023-02-13T16:38:45.797Z,14.48
2023-02-13T16:41:48.812Z,12.13
2023-02-13T16:45:11.613Z,12.02
2023-02-13T16:48:15.702Z,12.75
2023-02-13T16:51:30.396Z,11.25
2023-02-13T16:54:56.984Z,14.35
2023-02-13T16:58:05.206Z,13.35
2023-02-13T17:01:15.811Z,12.98
2023-02-13T17:04:24.948Z,13.50
2023-02-13T17:07:30.373Z,10.90
2023-02-13T17:10:35.811Z,11.43
2023-02-13T17:13:59.528Z,12.32
2023-02-13T17:17:10.246Z,14.48
2023-02-13T17:20:18.788Z,11.88
2023-02-13T17:23:25.184Z,13.93
2023-02-13T17:26:29.800Z,11.73
2023-02-13T17:29:35.352Z,11.65
2023-02-13T17:32:42.602Z,13.60
2023-02-13T17:35:47.649Z,10.98
2023-02-13T17:38:52.252Z,12.93
2023-02-13T17:41:56.334Z,11.18
2023-02-13T17:45:01.024Z,12.85
2023-02-13T17:48:06.069Z,14.30
2023-02-13T17:51:14.089Z,15.95
2023-02-13T17:54:16.930Z,14.70
2023-02-13T17:57:20.143Z,12.90
2023-02-13T18:00:24.653Z,14.68
2023-02-13T18:03:27.803Z,15.02
2023-02-13T18:06:30.594Z,14.65
2023-02-13T18:09:33.654Z,15.80
2023-02-13T18:12:36.534Z,15.88
2023-02-13T18:15:42.556Z,15.48
2023-02-13T18:18:45.467Z,16.27
2023-02-13T18:21:48.309Z,15.88
2023-02-13T18:24:51.698Z,17.98
2023-02-13T18:27:55.367Z,18.67
2023-02-13T18:30:58.525Z,17.10
2023-02-13T18:34:01.694Z,16.70
2023-02-13T18:37:05.942Z,15.90
2023-02-13T18:40:09.988Z,17.02
2023-02-13T18:43:12.773Z,16.83
2023-02-13T18:46:15.660Z,16.77
2023-02-13T18:49:18.552Z,15.48
2023-02-13T18:52:21.404Z,25.33
2023-02-13T18:55:24.234Z,18.90
2023-02-13T18:58:27.143Z,17.73
2023-02-13T19:01:30.108Z,17.75
2023-02-13T19:04:35.155Z,17.87
2023-02-13T19:07:38.038Z,19.48
2023-02-13T19:10:41.010Z,18.92
2023-02-13T19:13:44.600Z,19.00
2023-02-13T19:16:47.449Z,20.48
2023-02-13T19:19:50.530Z,17.10
2023-02-13T19:22:55.186Z,20.00
2023-02-13T19:25:59.329Z,30.35
2023-02-13T19:29:02.228Z,26.67
2023-02-13T19:32:05.286Z,22.70
2023-02-13T19:35:08.390Z,21.08
2023-02-13T19:38:11.385Z,21.48
2023-02-13T19:41:17.275Z,18.30
2023-02-13T19:44:20.123Z,19.55
2023-02-13T19:47:23.022Z,17.75
2023-02-13T19:50:25.843Z,18.83
2023-02-13T19:53:28.756Z,19.45
2023-02-13T19:56:33.332Z,15.93
2023-02-13T19:59:36.243Z,20.60
2023-02-13T20:02:39.044Z,18.80
2023-02-13T20:05:41.963Z,16.85
2023-02-13T20:08:45.119Z,19.25
2023-02-13T20:11:48.098Z,18.62
2023-02-13T20:14:50.969Z,17.92
2023-02-13T20:17:53.801Z,14.93
2023-02-13T20:20:57.179Z,19.60
2023-02-13T20:24:00.349Z,16.92
2023-02-13T20:27:03.183Z,19.10
2023-02-13T20:30:07.858Z,17.30
2023-02-13T20:33:11.133Z,18.85
2023-02-13T20:36:16.937Z,18.00
2023-02-13T20:39:19.707Z,19.62
2023-02-13T20:42:22.554Z,18.55
2023-02-13T20:45:25.377Z,17.77
2023-02-13T20:48:28.527Z,21.05
2023-02-13T20:51:31.548Z,21.27
2023-02-13T20:54:34.764Z,21.83
2023-02-13T20:57:37.731Z,23.20
2023-02-13T21:00:40.710Z,21.27
2023-02-13T21:03:44.660Z,22.45
2023-02-13T21:06:48.052Z,23.42
2023-02-13T21:12:53.701Z,21.87
2023-02-13T21:16:04.775Z,23.40
2023-02-13T21:19:12.496Z,19.27
2023-02-13T21:22:15.307Z,20.77
2023-02-13T21:25:18.827Z,18.73
2023-02-13T21:28:21.792Z,24.10
2023-02-13T21:31:40.683Z,20.83
2023-02-13T21:34:43.711Z,19.42
2023-02-13T21:37:46.656Z,17.05
2023-02-13T21:40:49.499Z,16.67
2023-02-13T21:43:52.837Z,17.50
2023-02-13T21:46:56.507Z,19.80
2023-02-13T21:50:00.570Z,18.12
2023-02-13T21:53:03.618Z,17.58
2023-02-13T21:56:09.198Z,14.70
2023-02-13T21:59:16.842Z,18.10
2023-02-13T22:02:19.808Z,17.42
2023-02-13T22:05:23.016Z,15.82
2023-02-13T22:08:25.565Z,24.73
2023-02-13T22:11:29.453Z,24.37
2023-02-13T22:14:32.031Z,21.95
2023-02-13T22:17:36.769Z,23.20
2023-02-13T22:20:39.971Z,20.33
2023-02-13T22:23:44.702Z,21.92
2023-02-13T22:26:47.341Z,21.52
2023-02-13T22:29:53.449Z,22.40
2023-02-13T22:32:57.017Z,23.75
2023-02-13T22:36:00.639Z,19.40
2023-02-13T22:39:03.220Z,24.98
2023-02-13T22:42:07.262Z,22.05
2023-02-13T22:45:09.913Z,17.30
2023-02-13T22:48:13.040Z,16.40
2023-02-13T22:51:18.662Z,19.60
2023-02-13T22:54:21.790Z,18.00
2023-02-13T22:57:24.425Z,19.83
2023-02-13T23:00:29.081Z,14.10
2023-02-13T23:03:32.995Z,17.30
2023-02-13T23:06:36.196Z,17.40
2023-02-13T23:09:38.881Z,15.88
2023-02-13T23:12:45.666Z,17.23
2023-02-13T23:15:50.283Z,19.05
2023-02-13T23:18:55.622Z,17.95
2023-02-13T23:21:59.328Z,16.40
2023-02-13T23:25:05.246Z,18.02
2023-02-13T23:28:08.912Z,19.10
2023-02-13T23:31:12.128Z,16.80
2023-02-13T23:34:14.811Z,18.00
2023-02-13T23:37:18.545Z,17.52
2023-02-13T23:40:21.167Z,17.33
2023-02-13T23:43:24.253Z,17.80
2023-02-13T23:46:27.257Z,19.23
2023-02-13T23:49:30.690Z,16.83
2023-02-13T23:52:33.215Z,19.75
2023-02-13T23:55:36.452Z,18.52
2023-02-13T23:58:39.031Z,20.33
